createdAt,value
2018-12-21T00:00:20.304Z,35.60
2018-12-21T00:02:52.688Z,43.67
2018-12-21T00:05:22.503Z,43.60
2018-12-21T00:07:52.410Z,39.60
2018-12-21T00:10:22.270Z,41.93
2018-12-21T00:12:52.180Z,33.87
2018-12-21T00:15:22.782Z,46.03
2018-12-21T00:17:53.006Z,46.27
2018-12-21T00:20:22.852Z,37.27
2018-12-21T00:22:52.566Z,32.90
2018-12-21T00:25:22.247Z,39.43
2018-12-21T00:27:52.114Z,36.70
2018-12-21T00:30:22.719Z,36.80
2018-12-21T00:32:57.685Z,34.83
2018-12-21T00:35:32.974Z,37.37
2018-12-21T00:38:11.815Z,36.57
2018-12-21T00:40:46.717Z,41.60
2018-12-21T00:43:21.517Z,47.53
2018-12-21T00:45:57.132Z,42.53
2018-12-21T00:48:26.835Z,42.83
2018-12-21T00:50:56.477Z,51.33
2018-12-21T00:53:26.651Z,45.40
2018-12-21T00:55:56.410Z,50.97
2018-12-21T00:58:26.055Z,41.70
2018-12-21T01:00:56.389Z,40.43
2018-12-21T01:03:26.287Z,36.80
2018-12-21T01:05:56.311Z,36.90
2018-12-21T01:08:26.019Z,33.30
2018-12-21T01:10:55.655Z,37.23
2018-12-21T01:13:25.475Z,34.17
2018-12-21T01:15:55.493Z,35.93
2018-12-21T01:18:25.210Z,40.77
2018-12-21T01:20:55.217Z,36.13
2018-12-21T01:23:24.804Z,42.07
2018-12-21T01:25:54.651Z,37.47
2018-12-21T01:28:24.355Z,36.53
2018-12-21T01:30:53.931Z,35.50
2018-12-21T01:33:24.114Z,38.00
2018-12-21T01:35:53.701Z,36.37
2018-12-21T01:38:23.292Z,28.50
2018-12-21T01:40:53.538Z,34.37
2018-12-21T01:43:23.370Z,34.00
2018-12-21T01:45:52.756Z,40.37
2018-12-21T01:48:22.416Z,40.47
2018-12-21T01:50:52.353Z,37.03
2018-12-21T01:53:22.148Z,39.60
2018-12-21T01:55:51.733Z,41.10
2018-12-21T01:58:21.412Z,36.63
2018-12-21T02:00:51.269Z,35.23
2018-12-21T02:03:20.855Z,40.10
2018-12-21T02:05:50.571Z,40.20
2018-12-21T02:08:20.431Z,41.40
2018-12-21T02:10:50.243Z,35.90
2018-12-21T02:13:19.949Z,33.57
2018-12-21T02:15:49.497Z,34.73
2018-12-21T02:18:19.083Z,25.37
2018-12-21T02:20:48.762Z,26.80
2018-12-21T02:23:18.719Z,33.20
2018-12-21T02:25:48.262Z,31.80
2018-12-21T02:28:17.713Z,30.93
2018-12-21T02:30:47.343Z,31.50
2018-12-21T02:33:17.108Z,34.67
2018-12-21T02:35:46.826Z,33.33
2018-12-21T02:38:16.350Z,35.77
2018-12-21T02:40:45.942Z,28.80
2018-12-21T02:43:15.364Z,29.87
2018-12-21T02:45:44.956Z,29.00
2018-12-21T02:48:14.739Z,29.43
2018-12-21T02:50:44.462Z,30.70
2018-12-21T02:53:14.031Z,31.47
2018-12-21T02:55:43.714Z,32.10
2018-12-21T02:58:13.421Z,29.57
2018-12-21T03:00:43.007Z,25.83
2018-12-21T03:03:13.516Z,29.47
2018-12-21T03:05:43.151Z,32.43
2018-12-21T03:08:12.754Z,24.50
2018-12-21T03:10:42.809Z,27.20
2018-12-21T03:13:13.151Z,30.97
2018-12-21T03:15:42.952Z,27.43
2018-12-21T03:18:12.611Z,29.77
2018-12-21T03:20:42.428Z,33.10
2018-12-21T03:23:12.069Z,38.53
2018-12-21T03:25:41.643Z,35.10
2018-12-21T03:28:11.537Z,36.80
2018-12-21T03:30:41.226Z,31.10
2018-12-21T03:33:10.750Z,35.37
2018-12-21T03:35:40.281Z,39.43
2018-12-21T03:38:10.204Z,38.17
2018-12-21T03:40:39.996Z,28.40
2018-12-21T03:43:09.445Z,37.53
2018-12-21T03:45:39.227Z,34.47
2018-12-21T03:48:08.813Z,35.60
2018-12-21T03:50:38.950Z,35.57
2018-12-21T03:53:08.444Z,36.27
2018-12-21T03:55:37.992Z,36.73
2018-12-21T03:58:07.876Z,39.20
2018-12-21T04:00:38.193Z,34.50
2018-12-21T04:03:07.923Z,30.70
2018-12-21T04:05:37.564Z,36.17
2018-12-21T04:08:07.136Z,39.33
2018-12-21T04:10:37.146Z,36.77
2018-12-21T04:13:06.974Z,39.90
2018-12-21T04:15:36.799Z,34.13
2018-12-21T04:18:06.485Z,36.50
2018-12-21T04:20:36.933Z,39.83
2018-12-21T04:23:06.678Z,35.80
2018-12-21T04:25:36.326Z,28.17
2018-12-21T04:28:06.081Z,39.20
2018-12-21T04:30:35.573Z,38.73
2018-12-21T04:33:05.862Z,36.40
2018-12-21T04:35:35.422Z,44.60
2018-12-21T04:38:04.893Z,32.10
2018-12-21T04:40:34.363Z,35.93
2018-12-21T04:43:04.055Z,36.93
2018-12-21T04:45:33.549Z,32.63
2018-12-21T04:48:03.171Z,40.37
2018-12-21T04:50:33.508Z,35.53
2018-12-21T04:53:03.787Z,32.10
2018-12-21T04:55:33.713Z,33.77
2018-12-21T04:58:03.151Z,32.03
2018-12-21T05:00:32.791Z,32.93
2018-12-21T05:03:02.392Z,37.90
2018-12-21T05:05:31.822Z,28.57
2018-12-21T05:08:01.423Z,34.17
2018-12-21T05:10:31.107Z,31.40
2018-12-21T05:13:00.668Z,28.97
2018-12-21T05:15:30.391Z,29.27
2018-12-21T05:18:00.675Z,27.03
2018-12-21T05:20:30.989Z,28.03
2018-12-21T05:23:00.778Z,26.40
2018-12-21T05:25:30.356Z,33.27
2018-12-21T05:28:00.084Z,29.00
2018-12-21T05:30:29.768Z,36.03
2018-12-21T05:32:59.473Z,41.10
2018-12-21T05:35:29.029Z,33.63
2018-12-21T05:37:59.084Z,38.57
2018-12-21T05:40:28.773Z,37.80
2018-12-21T05:42:59.248Z,43.37
2018-12-21T05:45:29.293Z,36.00
2018-12-21T05:47:59.683Z,38.13
2018-12-21T05:50:29.835Z,37.23
2018-12-21T05:53:00.937Z,40.60
2018-12-21T05:55:30.995Z,34.50
2018-12-21T05:58:02.298Z,45.85
2018-12-21T06:00:31.984Z,35.63
2018-12-21T06:03:02.324Z,35.33
2018-12-21T06:05:31.819Z,33.90
2018-12-21T06:08:01.606Z,35.20
2018-12-21T06:10:31.613Z,38.50
2018-12-21T06:13:01.628Z,33.40
2018-12-21T06:15:32.460Z,32.60
2018-12-21T06:18:02.428Z,41.23
2018-12-21T06:20:32.429Z,35.03
2018-12-21T06:23:09.449Z,33.27
2018-12-21T06:25:35.149Z,34.00
2018-12-21T06:28:05.230Z,39.77
2018-12-21T06:30:35.308Z,37.57
2018-12-21T06:33:05.246Z,32.47
2018-12-21T06:35:35.267Z,28.67
2018-12-21T06:38:05.104Z,33.47
2018-12-21T06:40:34.836Z,29.50
2018-12-21T06:43:05.355Z,27.83
2018-12-21T06:45:34.836Z,29.60
2018-12-21T06:48:05.018Z,24.30
2018-12-21T06:50:34.970Z,30.63
2018-12-21T06:53:04.836Z,27.50
2018-12-21T06:55:34.369Z,26.60
2018-12-21T06:58:04.079Z,25.90
2018-12-21T07:00:33.864Z,27.13
2018-12-21T07:03:04.506Z,25.80
2018-12-21T07:05:34.250Z,27.73
2018-12-21T07:08:04.040Z,28.37
2018-12-21T07:10:33.840Z,23.67
2018-12-21T07:13:03.436Z,30.17
2018-12-21T07:15:33.331Z,29.77
2018-12-21T07:18:09.115Z,26.17
2018-12-21T07:20:38.564Z,26.43
2018-12-21T07:23:08.569Z,31.20
2018-12-21T07:25:38.268Z,40.07
2018-12-21T07:28:08.078Z,40.30
2018-12-21T07:30:37.559Z,39.47
2018-12-21T07:33:07.360Z,43.63
2018-12-21T07:35:37.212Z,44.63
2018-12-21T07:38:06.937Z,45.23
2018-12-21T07:40:36.699Z,56.23
2018-12-21T07:43:06.235Z,62.10
2018-12-21T07:45:36.119Z,59.37
2018-12-21T07:48:05.821Z,62.80
2018-12-21T07:50:35.601Z,53.43
2018-12-21T07:53:05.556Z,51.43
2018-12-21T07:55:35.205Z,52.97
2018-12-21T07:58:04.957Z,50.27
2018-12-21T08:00:34.683Z,51.77
2018-12-21T08:03:04.220Z,44.20
2018-12-21T08:05:33.727Z,40.37
2018-12-21T08:08:03.811Z,36.77
2018-12-21T08:10:33.537Z,37.90
2018-12-21T08:13:03.350Z,38.40
2018-12-21T08:15:32.938Z,36.50
2018-12-21T08:18:02.802Z,47.90
2018-12-21T08:20:32.388Z,62.80
2018-12-21T08:23:01.838Z,65.60
2018-12-21T08:25:31.839Z,60.93
2018-12-21T08:28:01.424Z,52.93
2018-12-21T08:30:30.982Z,55.90
2018-12-21T08:33:00.753Z,43.97
2018-12-21T08:35:30.518Z,42.23
2018-12-21T08:38:00.247Z,40.17
2018-12-21T08:40:30.087Z,36.27
2018-12-21T08:42:59.795Z,33.40
2018-12-21T08:45:29.518Z,30.67
2018-12-21T08:47:59.030Z,29.73
2018-12-21T08:50:28.821Z,27.07
2018-12-21T08:52:58.924Z,26.27
2018-12-21T08:55:28.511Z,24.57
2018-12-21T08:57:58.164Z,21.27
2018-12-21T09:00:27.680Z,18.93
2018-12-21T09:02:57.312Z,18.93
2018-12-21T09:05:26.910Z,17.00
2018-12-21T09:07:56.674Z,18.60
2018-12-21T09:10:26.245Z,17.23
2018-12-21T09:12:55.754Z,15.67
2018-12-21T09:15:25.327Z,16.13
2018-12-21T09:17:54.826Z,13.70
2018-12-21T09:20:24.386Z,14.63
2018-12-21T09:22:53.830Z,14.03
2018-12-21T09:25:23.586Z,13.90
2018-12-21T09:27:53.332Z,13.67
2018-12-21T09:30:22.892Z,15.07
2018-12-21T09:32:53.756Z,13.83
2018-12-21T09:35:23.629Z,14.73
2018-12-21T09:37:53.820Z,12.97
2018-12-21T09:40:23.408Z,12.43
2018-12-21T09:42:53.500Z,11.80
2018-12-21T09:45:23.441Z,11.93
2018-12-21T09:47:53.008Z,12.33
2018-12-21T09:50:22.461Z,11.70
2018-12-21T09:52:52.015Z,11.27
2018-12-21T09:55:21.574Z,11.77
2018-12-21T09:57:51.507Z,11.53
2018-12-21T10:00:21.654Z,11.73
2018-12-21T10:02:51.233Z,9.93
2018-12-21T10:05:21.094Z,9.23
2018-12-21T10:07:51.378Z,9.30
2018-12-21T10:10:21.361Z,7.57
2018-12-21T10:12:53.492Z,8.23
2018-12-21T10:15:23.315Z,7.40
2018-12-21T10:17:52.880Z,8.13
2018-12-21T10:20:23.759Z,8.30
2018-12-21T10:22:53.460Z,7.63
2018-12-21T10:25:23.938Z,7.60
2018-12-21T10:27:53.418Z,6.23
2018-12-21T10:30:23.531Z,6.47
2018-12-21T10:32:53.029Z,7.67
2018-12-21T10:35:22.561Z,7.50
2018-12-21T10:37:52.021Z,8.17
2018-12-21T10:40:21.893Z,11.97
2018-12-21T10:42:52.425Z,14.27
2018-12-21T10:45:22.635Z,23.70
2018-12-21T10:47:53.357Z,33.70
2018-12-21T10:50:24.749Z,30.10
2018-12-21T10:52:54.941Z,40.87
2018-12-21T10:55:26.451Z,48.23
2018-12-21T10:57:56.821Z,40.63
2018-12-21T11:00:26.903Z,39.77
2018-12-21T11:02:56.897Z,43.87
2018-12-21T11:05:27.397Z,38.77
2018-12-21T11:07:58.764Z,47.83
2018-12-21T11:10:29.073Z,43.13
2018-12-21T11:12:59.030Z,42.93
2018-12-21T11:15:29.160Z,47.47
2018-12-21T11:17:59.392Z,33.30
2018-12-21T11:20:30.334Z,36.87
2018-12-21T11:23:00.346Z,37.67
2018-12-21T11:25:30.226Z,30.20
2018-12-21T11:28:00.237Z,29.13
2018-12-21T11:30:30.642Z,22.77
2018-12-21T11:33:00.667Z,21.67
2018-12-21T11:35:30.574Z,20.30
2018-12-21T11:38:00.497Z,20.37
2018-12-21T11:40:30.771Z,16.23
2018-12-21T11:43:00.551Z,15.87
2018-12-21T11:45:30.537Z,14.47
2018-12-21T11:48:00.179Z,14.03
2018-12-21T11:50:30.310Z,12.07
2018-12-21T11:52:59.979Z,10.17
2018-12-21T11:55:29.711Z,9.00
2018-12-21T11:57:59.395Z,8.10
2018-12-21T12:00:29.095Z,7.60
2018-12-21T12:02:58.517Z,7.17
2018-12-21T12:05:27.993Z,6.83
2018-12-21T12:07:57.716Z,7.33
2018-12-21T12:10:27.351Z,7.33
2018-12-21T12:12:56.977Z,6.47
2018-12-21T12:15:28.583Z,6.77
2018-12-21T12:17:59.332Z,6.37
2018-12-21T12:20:28.845Z,6.03
2018-12-21T12:22:58.759Z,6.80
2018-12-21T12:25:28.563Z,6.60
2018-12-21T12:27:58.293Z,6.57
2018-12-21T12:30:29.037Z,5.83
2018-12-21T12:32:58.717Z,5.63
2018-12-21T12:35:31.063Z,6.10
2018-12-21T12:38:00.878Z,6.27
2018-12-21T12:40:30.416Z,6.70
2018-12-21T12:43:00.789Z,5.47
2018-12-21T12:45:30.376Z,6.20
2018-12-21T12:48:00.027Z,6.57
2018-12-21T12:50:29.486Z,6.13
2018-12-21T12:52:59.271Z,6.07
2018-12-21T12:55:28.756Z,5.73
2018-12-21T12:57:58.442Z,5.67
2018-12-21T13:00:28.206Z,6.03
2018-12-21T13:02:57.711Z,6.73
2018-12-21T13:05:27.495Z,5.67
2018-12-21T13:07:57.206Z,5.23
2018-12-21T13:10:26.793Z,6.90
2018-12-21T13:12:56.464Z,6.40
2018-12-21T13:15:26.066Z,5.67
2018-12-21T13:17:55.951Z,6.87
2018-12-21T13:20:25.449Z,8.03
2018-12-21T13:22:55.114Z,6.97
2018-12-21T13:25:25.047Z,7.50
2018-12-21T13:27:55.427Z,7.60
2018-12-21T13:30:25.265Z,7.03
2018-12-21T13:32:55.019Z,8.87
2018-12-21T13:35:24.699Z,7.93
2018-12-21T13:37:54.331Z,10.33
2018-12-21T13:40:24.256Z,10.73
2018-12-21T13:42:54.155Z,11.57
2018-12-21T13:45:24.004Z,11.20
2018-12-21T13:47:54.175Z,13.07
2018-12-21T13:50:24.031Z,12.87
2018-12-21T13:52:53.550Z,12.17
2018-12-21T13:55:23.054Z,10.57
2018-12-21T13:57:52.862Z,10.63
2018-12-21T14:04:08.480Z,14.00
2018-12-21T14:06:39.206Z,10.13
2018-12-21T14:09:09.066Z,9.47
2018-12-21T14:11:38.646Z,8.00
2018-12-21T14:14:08.402Z,8.37
2018-12-21T14:16:38.040Z,8.80
2018-12-21T14:19:07.890Z,7.80
2018-12-21T14:21:37.882Z,7.67
2018-12-21T14:24:07.700Z,7.10
2018-12-21T14:26:37.543Z,7.30
2018-12-21T14:29:08.068Z,7.70
2018-12-21T14:31:37.658Z,6.27
2018-12-21T14:34:07.489Z,8.53
2018-12-21T14:36:37.169Z,7.60
2018-12-21T14:39:07.880Z,6.33
2018-12-21T14:41:37.839Z,6.67
2018-12-21T14:44:07.352Z,7.77
2018-12-21T14:46:37.500Z,7.47
2018-12-21T14:49:07.496Z,5.10
2018-12-21T14:51:37.076Z,7.00
2018-12-21T14:54:06.764Z,14.93
2018-12-21T14:56:37.394Z,12.03
2018-12-21T14:59:07.404Z,8.63
2018-12-21T15:01:37.151Z,8.53
2018-12-21T15:04:06.777Z,7.20
2018-12-21T15:06:36.387Z,6.73
2018-12-21T15:09:07.953Z,8.43
2018-12-21T15:11:37.431Z,5.97
2018-12-21T15:14:07.028Z,8.07
2018-12-21T15:16:36.730Z,6.13
2018-12-21T15:19:06.115Z,5.97
2018-12-21T15:21:35.995Z,6.07
2018-12-21T15:24:05.568Z,5.87
2018-12-21T15:26:35.155Z,8.53
2018-12-21T15:29:04.936Z,7.17
2018-12-21T15:31:34.577Z,10.47
2018-12-21T15:34:04.563Z,8.53
2018-12-21T15:36:34.636Z,11.23
2018-12-21T15:39:05.159Z,13.13
2018-12-21T15:41:35.053Z,16.83
2018-12-21T15:44:06.595Z,23.87
2018-12-21T15:46:36.195Z,14.73
2018-12-21T15:49:06.042Z,10.77
2018-12-21T15:51:35.653Z,8.43
2018-12-21T15:54:05.424Z,7.80
2018-12-21T15:56:34.775Z,8.73
2018-12-21T15:59:04.403Z,9.53
2018-12-21T16:01:37.016Z,10.87
2018-12-21T16:04:06.175Z,12.43
2018-12-21T16:06:36.542Z,13.23
2018-12-21T16:09:08.240Z,9.90
2018-12-21T16:11:37.970Z,10.30
2018-12-21T16:14:07.998Z,8.33
2018-12-21T16:16:37.623Z,7.83
2018-12-21T16:19:07.553Z,8.63
2018-12-21T16:21:37.702Z,9.10
2018-12-21T16:24:07.466Z,8.47
2018-12-21T16:26:37.232Z,9.10
2018-12-21T16:29:08.137Z,9.47
2018-12-21T16:31:37.792Z,8.80
2018-12-21T16:34:07.798Z,9.60
2018-12-21T16:36:37.539Z,9.17
2018-12-21T16:39:08.156Z,10.23
2018-12-21T16:41:37.763Z,9.27
2018-12-21T16:44:07.598Z,8.30
2018-12-21T16:46:37.132Z,8.10
2018-12-21T16:49:06.683Z,9.07
2018-12-21T16:51:36.433Z,8.10
2018-12-21T16:54:06.079Z,8.63
2018-12-21T16:56:36.094Z,7.03
2018-12-21T16:59:05.748Z,9.47
2018-12-21T17:01:35.986Z,9.13
2018-12-21T17:04:05.776Z,9.60
2018-12-21T17:06:37.131Z,7.83
2018-12-21T17:09:08.773Z,8.50
2018-12-21T17:11:38.613Z,7.50
2018-12-21T17:14:08.629Z,8.03
2018-12-21T17:16:39.200Z,6.50
2018-12-21T17:19:16.071Z,6.47
2018-12-21T17:21:45.784Z,6.30
2018-12-21T17:24:15.249Z,10.20
2018-12-21T17:26:46.875Z,10.43
2018-12-21T17:29:16.791Z,11.10
2018-12-21T17:31:46.473Z,10.97
2018-12-21T17:34:16.129Z,10.97
2018-12-21T17:36:46.549Z,12.17
2018-12-21T17:39:16.178Z,11.70
2018-12-21T17:41:45.715Z,11.70
2018-12-21T17:44:16.010Z,11.00
2018-12-21T17:46:45.931Z,10.27
2018-12-21T17:49:15.736Z,9.93
2018-12-21T17:51:45.590Z,10.67
2018-12-21T17:54:15.733Z,9.40
2018-12-21T17:56:45.619Z,9.07
2018-12-21T17:59:15.010Z,10.03
2018-12-21T18:01:44.959Z,11.03
2018-12-21T18:04:25.192Z,9.77
2018-12-21T18:06:55.668Z,7.93
2018-12-21T18:09:27.647Z,8.43
2018-12-21T18:11:57.588Z,21.80
2018-12-21T18:14:27.429Z,17.47
2018-12-21T18:16:57.169Z,11.80
2018-12-21T18:19:27.181Z,10.73
2018-12-21T18:22:01.861Z,10.20
2018-12-21T18:24:31.842Z,12.47
2018-12-21T18:27:01.512Z,9.63
2018-12-21T18:29:32.115Z,8.00
2018-12-21T18:32:08.426Z,20.67
2018-12-21T18:34:38.570Z,18.23
2018-12-21T18:37:10.030Z,17.07
2018-12-21T18:39:39.573Z,15.30
2018-12-21T18:42:09.019Z,15.13
2018-12-21T18:44:38.853Z,13.73
2018-12-21T18:47:08.579Z,23.57
2018-12-21T18:49:38.043Z,23.03
2018-12-21T18:52:07.566Z,17.07
2018-12-21T18:58:22.257Z,9.33
2018-12-21T19:00:52.171Z,10.83
2018-12-21T19:03:21.723Z,10.40
2018-12-21T19:05:51.510Z,13.33
2018-12-21T19:08:21.548Z,12.47
2018-12-21T19:10:51.399Z,13.33
2018-12-21T19:13:20.863Z,14.67
2018-12-21T19:15:50.781Z,14.37
2018-12-21T19:18:20.449Z,11.83
2018-12-21T19:20:50.446Z,10.60
2018-12-21T19:23:20.486Z,8.47
2018-12-21T19:25:50.130Z,7.47
2018-12-21T19:28:19.660Z,10.83
2018-12-21T19:30:49.270Z,13.83
2018-12-21T19:33:19.199Z,12.60
2018-12-21T19:35:48.905Z,11.90
2018-12-21T19:38:18.678Z,16.47
2018-12-21T19:40:48.730Z,15.37
2018-12-21T19:43:18.382Z,16.67
2018-12-21T19:45:48.165Z,14.97
2018-12-21T19:48:17.766Z,11.07
2018-12-21T19:50:47.304Z,12.80
2018-12-21T19:53:17.236Z,12.73
2018-12-21T19:56:52.719Z,11.90
2018-12-21T19:59:22.837Z,10.63
2018-12-21T20:01:52.371Z,11.80
2018-12-21T20:04:21.927Z,12.87
2018-12-21T20:06:52.126Z,11.53
2018-12-21T20:09:22.162Z,12.13
2018-12-21T20:11:51.872Z,14.67
2018-12-21T20:14:21.553Z,13.90
2018-12-21T20:16:51.084Z,11.77
2018-12-21T20:19:20.565Z,10.73
2018-12-21T20:21:50.114Z,9.83
2018-12-21T20:24:23.164Z,10.43
2018-12-21T20:26:56.312Z,7.53
2018-12-21T20:29:25.620Z,5.83
2018-12-21T20:31:55.590Z,5.17
2018-12-21T20:34:25.240Z,5.07
2018-12-21T20:36:54.792Z,5.10
2018-12-21T20:39:26.727Z,4.90
2018-12-21T20:41:56.838Z,5.40
2018-12-21T20:44:26.630Z,5.30
2018-12-21T20:46:56.671Z,5.40
2018-12-21T20:49:26.047Z,5.93
2018-12-21T20:51:55.486Z,5.83
2018-12-21T20:54:25.671Z,5.93
2018-12-21T20:56:58.034Z,5.50
2018-12-21T20:59:28.108Z,4.67
2018-12-21T21:01:57.936Z,5.43
2018-12-21T21:04:27.324Z,4.67
2018-12-21T21:06:57.003Z,5.67
2018-12-21T21:09:26.782Z,5.13
2018-12-21T21:11:56.296Z,5.93
2018-12-21T21:14:25.975Z,6.03
2018-12-21T21:16:55.979Z,5.60
2018-12-21T21:19:27.898Z,6.37
2018-12-21T21:21:57.451Z,5.70
2018-12-21T21:24:27.394Z,5.87
2018-12-21T21:26:56.860Z,6.03
2018-12-21T21:29:26.357Z,8.33
2018-12-21T21:31:56.691Z,5.50
2018-12-21T21:34:26.244Z,6.80
2018-12-21T21:36:56.098Z,5.33
2018-12-21T21:39:25.715Z,4.63
2018-12-21T21:41:55.357Z,4.87
2018-12-21T21:44:25.007Z,6.27
2018-12-21T21:46:54.711Z,7.67
2018-12-21T21:49:24.130Z,5.43
2018-12-21T21:51:53.825Z,4.43
2018-12-21T21:54:23.197Z,4.97
2018-12-21T21:56:52.524Z,4.80
2018-12-21T21:59:21.921Z,4.50
2018-12-21T22:01:51.383Z,5.20
2018-12-21T22:04:21.167Z,4.97
2018-12-21T22:06:50.514Z,5.57
2018-12-21T22:09:23.924Z,7.47
2018-12-21T22:11:53.544Z,5.57
2018-12-21T22:14:23.184Z,4.97
2018-12-21T22:16:52.660Z,4.93
2018-12-21T22:19:22.160Z,4.90
2018-12-21T22:21:51.887Z,4.37
2018-12-21T22:24:21.385Z,5.30
2018-12-21T22:26:50.882Z,5.00
2018-12-21T22:29:20.914Z,4.90
2018-12-21T22:31:50.166Z,4.80
2018-12-21T22:34:19.605Z,5.80
2018-12-21T22:36:49.193Z,4.80
2018-12-21T22:39:18.763Z,4.73
2018-12-21T22:41:48.313Z,4.53
2018-12-21T22:44:18.254Z,4.93
2018-12-21T22:46:47.726Z,5.27
2018-12-21T22:49:17.508Z,5.50
2018-12-21T22:51:47.094Z,4.80
2018-12-21T22:54:17.037Z,4.80
2018-12-21T22:56:46.861Z,4.10
2018-12-21T22:59:16.463Z,5.90
2018-12-21T23:01:46.040Z,5.50
2018-12-21T23:04:15.466Z,4.67
2018-12-21T23:06:45.411Z,4.40
2018-12-21T23:09:15.058Z,5.50
2018-12-21T23:11:44.703Z,4.97
2018-12-21T23:14:14.342Z,5.50
2018-12-21T23:16:43.883Z,5.10
2018-12-21T23:19:13.404Z,5.80
2018-12-21T23:21:42.854Z,4.90
2018-12-21T23:28:11.962Z,4.67
2018-12-21T23:30:41.522Z,5.10
2018-12-21T23:33:11.702Z,4.77
2018-12-21T23:35:41.889Z,5.33
2018-12-21T23:38:11.169Z,4.83
2018-12-21T23:40:41.100Z,3.83
2018-12-21T23:43:11.248Z,4.07
2018-12-21T23:45:41.141Z,3.33
2018-12-21T23:48:10.665Z,3.37
2018-12-21T23:50:40.454Z,3.00
2018-12-21T23:53:10.357Z,3.37
2018-12-21T23:55:39.897Z,3.27
2018-12-21T23:58:13.859Z,3.07
